createdAt,value
2022-08-03T00:02:19.234Z,101412.88
2022-08-03T00:04:46.627Z,101404.19
2022-08-03T00:07:13.920Z,101397.19
2022-08-03T00:09:41.096Z,101394.75
2022-08-03T00:12:08.993Z,101397.59
2022-08-03T00:14:36.192Z,101392.44
2022-08-03T00:17:03.778Z,101392.75
2022-08-03T00:19:30.917Z,101401.28
2022-08-03T00:21:57.903Z,101402.53
2022-08-03T00:24:24.993Z,101403.84
2022-08-03T00:26:52.229Z,101399.75
2022-08-03T00:29:19.361Z,101400.06
2022-08-03T00:31:59.580Z,101396.72
2022-08-03T00:34:36.572Z,101398.72
2022-08-03T00:37:16.364Z,101400.63
2022-08-03T00:39:45.870Z,101399.97
2022-08-03T00:42:13.559Z,101400.28
2022-08-03T00:44:43.194Z,101402.28
2022-08-03T00:47:11.769Z,101401.69
2022-08-03T00:49:42.467Z,101407.44
2022-08-03T00:52:13.801Z,101399.59
2022-08-03T00:54:41.112Z,101396.25
2022-08-03T00:57:08.924Z,101406.41
2022-08-03T00:59:38.184Z,101410.31
2022-08-03T01:02:06.011Z,101398.06
2022-08-03T01:04:33.001Z,101399.97
2022-08-03T01:07:43.845Z,101399.19
2022-08-03T01:10:28.499Z,101392.34
2022-08-03T01:14:01.365Z,101396.16
2022-08-03T01:16:53.657Z,101389.34
2022-08-03T01:19:56.384Z,101394.00
2022-08-03T01:23:01.267Z,101382.72
2022-08-03T01:25:59.861Z,101380.22
2022-08-03T01:28:54.252Z,101384.97
2022-08-03T01:31:29.326Z,101380.00
2022-08-03T01:34:08.371Z,101381.06
2022-08-03T01:36:52.964Z,101381.34
2022-08-03T01:39:22.564Z,101375.41
2022-08-03T01:41:59.295Z,101387.25
2022-08-03T01:44:31.463Z,101380.50
2022-08-03T01:47:04.377Z,101379.66
2022-08-03T01:49:39.491Z,101376.31
2022-08-03T01:52:08.732Z,101377.28
2022-08-03T01:54:45.304Z,101372.03
2022-08-03T01:57:15.135Z,101379.25
2022-08-03T01:59:44.724Z,101372.28
2022-08-03T02:02:33.138Z,101375.03
2022-08-03T02:05:04.896Z,101365.41
2022-08-03T02:07:34.508Z,101364.63
2022-08-03T02:10:06.614Z,101375.31
2022-08-03T02:12:37.720Z,101374.53
2022-08-03T02:15:08.169Z,101370.13
2022-08-03T02:17:39.160Z,101371.13
2022-08-03T02:20:13.864Z,101374.72
2022-08-03T02:22:43.847Z,101370.50
2022-08-03T02:25:15.834Z,101369.81
2022-08-03T02:27:59.621Z,101371.72
2022-08-03T02:30:39.043Z,101367.59
2022-08-03T02:33:18.509Z,101370.44
2022-08-03T02:35:49.141Z,101367.84
2022-08-03T02:38:23.619Z,101363.56
2022-08-03T02:40:53.798Z,101361.91
2022-08-03T02:43:24.613Z,101365.50
2022-08-03T02:45:54.347Z,101356.72
2022-08-03T02:48:27.261Z,101353.38
2022-08-03T02:50:59.619Z,101356.81
2022-08-03T02:53:28.760Z,101350.50
2022-08-03T02:55:58.424Z,101349.56
2022-08-03T02:58:27.072Z,101356.56
2022-08-03T03:00:56.025Z,101354.66
2022-08-03T03:03:23.708Z,101352.88
2022-08-03T03:05:57.563Z,101352.78
2022-08-03T03:08:28.372Z,101350.09
2022-08-03T03:11:01.559Z,101350.03
2022-08-03T03:13:30.908Z,101348.22
2022-08-03T03:16:03.113Z,101353.38
2022-08-03T03:18:33.730Z,101362.34
2022-08-03T03:21:08.401Z,101355.28
2022-08-03T03:23:38.756Z,101354.41
2022-08-03T03:26:07.673Z,101351.72
2022-08-03T03:28:37.595Z,101357.06
2022-08-03T03:31:06.895Z,101356.06
2022-08-03T03:33:35.641Z,101354.22
2022-08-03T03:36:05.099Z,101352.44
2022-08-03T03:38:33.357Z,101355.09
2022-08-03T03:41:03.329Z,101351.56
2022-08-03T03:43:33.831Z,101360.63
2022-08-03T03:46:01.408Z,101358.78
2022-08-03T03:48:28.701Z,101350.97
2022-08-03T03:50:57.322Z,101350.97
2022-08-03T03:53:24.975Z,101353.72
2022-08-03T03:55:57.744Z,101358.13
2022-08-03T03:58:32.414Z,101351.94
2022-08-03T04:01:00.214Z,101354.59
2022-08-03T04:03:27.548Z,101355.53
2022-08-03T04:06:13.395Z,101351.13
2022-08-03T04:08:59.701Z,101353.78
2022-08-03T04:11:39.358Z,101358.28
2022-08-03T04:14:15.557Z,101350.28
2022-08-03T04:16:50.068Z,101356.47
2022-08-03T04:19:43.669Z,101360.72
2022-08-03T04:22:17.953Z,101358.91
2022-08-03T04:24:52.020Z,101353.56
2022-08-03T04:27:25.820Z,101358.72
2022-08-03T04:29:56.738Z,101358.53
2022-08-03T04:32:28.664Z,101359.31
2022-08-03T04:34:56.368Z,101355.69
2022-08-03T04:37:41.674Z,101357.13
2022-08-03T04:40:22.817Z,101356.03
2022-08-03T04:42:53.637Z,101360.16
2022-08-03T04:45:21.613Z,101360.72
2022-08-03T04:47:50.477Z,101364.56
2022-08-03T04:50:21.437Z,101363.84
2022-08-03T04:53:06.575Z,101362.34
2022-08-03T04:55:36.536Z,101366.09
2022-08-03T04:58:04.639Z,101357.50
2022-08-03T05:00:32.489Z,101371.22
2022-08-03T05:02:59.646Z,101366.44
2022-08-03T05:05:26.924Z,101373.16
2022-08-03T05:08:13.971Z,101371.13
2022-08-03T05:10:41.196Z,101368.34
2022-08-03T05:13:12.062Z,101369.22
2022-08-03T05:15:42.959Z,101379.53
2022-08-03T05:18:14.153Z,101376.56
2022-08-03T05:20:42.497Z,101378.97
2022-08-03T05:23:09.714Z,101382.13
2022-08-03T05:25:36.737Z,101376.94
2022-08-03T05:28:04.178Z,101381.31
2022-08-03T05:30:33.901Z,101374.31
2022-08-03T05:33:03.664Z,101365.53
2022-08-03T05:36:00.819Z,101381.09
2022-08-03T05:38:23.666Z,101372.00
2022-08-03T05:40:56.886Z,101370.19
2022-08-03T05:43:25.131Z,101371.47
2022-08-03T05:46:11.611Z,101369.28
2022-08-03T05:48:39.416Z,101369.38
2022-08-03T05:51:07.787Z,101368.75
2022-08-03T05:53:35.348Z,101374.22
2022-08-03T05:56:13.149Z,101378.97
2022-08-03T05:58:40.539Z,101375.41
2022-08-03T06:01:07.608Z,101375.44
2022-08-03T06:03:34.638Z,101377.19
2022-08-03T06:06:01.726Z,101379.81
2022-08-03T06:08:28.877Z,101383.94
2022-08-03T06:10:56.294Z,101377.41
2022-08-03T06:13:25.467Z,101381.56
2022-08-03T06:15:53.557Z,101393.34
2022-08-03T06:18:20.741Z,101390.81
2022-08-03T06:20:49.436Z,101385.91
2022-08-03T06:23:18.504Z,101392.84
2022-08-03T06:25:46.062Z,101399.97
2022-08-03T06:28:52.893Z,101401.19
2022-08-03T06:31:06.551Z,101406.63
2022-08-03T06:34:30.096Z,101415.91
2022-08-03T06:36:21.115Z,101402.50
2022-08-03T06:38:48.194Z,101410.06
2022-08-03T06:41:15.314Z,101405.16
2022-08-03T06:44:03.258Z,101400.88
2022-08-03T06:46:29.500Z,101407.00
2022-08-03T06:48:56.626Z,101405.78
2022-08-03T06:52:03.824Z,101415.94
2022-08-03T06:54:10.969Z,101421.94
2022-08-03T06:56:38.213Z,101419.91
2022-08-03T06:59:06.219Z,101419.44
2022-08-03T07:01:33.295Z,101410.03
2022-08-03T07:04:01.182Z,101416.03
2022-08-03T07:06:28.183Z,101409.44
2022-08-03T07:08:59.376Z,101413.38
2022-08-03T07:11:28.511Z,101414.22
2022-08-03T07:13:56.404Z,101418.25
2022-08-03T07:16:23.552Z,101411.34
2022-08-03T07:18:50.563Z,101413.81
2022-08-03T07:21:17.674Z,101414.28
2022-08-03T07:23:45.661Z,101416.59
2022-08-03T07:26:13.180Z,101423.13
2022-08-03T07:28:40.253Z,101426.66
2022-08-03T07:31:07.908Z,101422.38
2022-08-03T07:33:35.455Z,101424.56
2022-08-03T07:36:04.708Z,101429.88
2022-08-03T07:38:31.801Z,101432.56
2022-08-03T07:40:58.784Z,101423.38
2022-08-03T07:43:25.793Z,101422.00
2022-08-03T07:45:52.857Z,101427.13
2022-08-03T07:48:19.856Z,101423.97
2022-08-03T07:50:47.619Z,101424.56
2022-08-03T07:53:14.851Z,101424.59
2022-08-03T07:55:42.393Z,101425.28
2022-08-03T07:58:17.225Z,101420.97
2022-08-03T08:00:46.505Z,101420.78
2022-08-03T08:03:13.613Z,101417.31
2022-08-03T08:05:40.695Z,101418.25
2022-08-03T08:08:08.379Z,101422.28
2022-08-03T08:10:35.880Z,101422.28
2022-08-03T08:13:04.703Z,101416.47
2022-08-03T08:15:32.298Z,101417.06
2022-08-03T08:18:02.387Z,101414.25
2022-08-03T08:20:33.225Z,101411.31
2022-08-03T08:23:12.164Z,101413.59
2022-08-03T08:25:54.037Z,101421.03
2022-08-03T08:28:32.235Z,101415.97
2022-08-03T08:31:01.606Z,101419.44
2022-08-03T08:34:00.983Z,101411.13
2022-08-03T08:36:18.152Z,101420.00
2022-08-03T08:38:45.372Z,101416.59
2022-08-03T08:41:14.979Z,101416.75
2022-08-03T08:43:43.106Z,101417.19
2022-08-03T08:46:23.145Z,101414.38
2022-08-03T08:48:53.709Z,101414.97
2022-08-03T08:51:59.279Z,101413.00
2022-08-03T08:54:18.025Z,101413.31
2022-08-03T08:56:45.289Z,101414.44
2022-08-03T08:59:13.347Z,101416.22
2022-08-03T09:01:40.528Z,101414.38
2022-08-03T09:04:07.629Z,101417.13
2022-08-03T09:06:34.808Z,101408.78
2022-08-03T09:09:01.840Z,101414.03
2022-08-03T09:12:00.441Z,101413.06
2022-08-03T09:14:37.213Z,101423.03
2022-08-03T09:17:04.532Z,101414.19
2022-08-03T09:19:34.340Z,101409.47
2022-08-03T09:22:10.784Z,101409.63
2022-08-03T09:24:41.580Z,101415.19
2022-08-03T09:27:13.532Z,101409.50
2022-08-03T09:29:41.983Z,101415.91
2022-08-03T09:32:11.073Z,101416.44
2022-08-03T09:34:38.192Z,101406.28
2022-08-03T09:37:20.102Z,101399.41
2022-08-03T09:40:08.328Z,101405.34
2022-08-03T09:42:38.149Z,101408.03
2022-08-03T09:45:06.125Z,101408.56
2022-08-03T09:47:44.645Z,101417.53
2022-08-03T09:50:13.058Z,101407.25
2022-08-03T09:52:49.372Z,101415.59
2022-08-03T09:56:30.872Z,101401.28
2022-08-03T09:58:11.329Z,101407.66
2022-08-03T10:00:57.413Z,101403.31
2022-08-03T10:03:28.352Z,101411.22
2022-08-03T10:05:59.824Z,101418.84
2022-08-03T10:08:27.337Z,101409.44
2022-08-03T10:10:54.903Z,101408.81
2022-08-03T10:13:23.427Z,101409.28
2022-08-03T10:16:21.971Z,101406.66
2022-08-03T10:18:39.625Z,101403.31
2022-08-03T10:21:15.555Z,101409.97
2022-08-03T10:23:43.415Z,101398.44
2022-08-03T10:26:19.089Z,101394.78
2022-08-03T10:28:51.017Z,101394.69
2022-08-03T10:31:23.820Z,101393.53
2022-08-03T10:33:55.315Z,101384.56
2022-08-03T10:36:27.336Z,101381.59
2022-08-03T10:38:57.065Z,101386.22
2022-08-03T10:41:39.034Z,101377.34
2022-08-03T10:44:13.371Z,101380.78
2022-08-03T10:46:45.187Z,101373.28
2022-08-03T10:49:21.455Z,101383.22
2022-08-03T10:52:11.397Z,101383.06
2022-08-03T10:55:07.607Z,101374.22
2022-08-03T10:57:58.584Z,101375.84
2022-08-03T11:00:30.014Z,101367.19
2022-08-03T11:03:17.045Z,101371.47
2022-08-03T11:05:49.040Z,101363.47
2022-08-03T11:08:27.843Z,101367.03
2022-08-03T11:11:21.072Z,101357.38
2022-08-03T11:14:11.460Z,101357.03
2022-08-03T11:16:42.322Z,101357.88
2022-08-03T11:19:12.831Z,101347.88
2022-08-03T11:22:04.986Z,101348.19
2022-08-03T11:24:47.435Z,101350.41
2022-08-03T11:27:14.423Z,101351.59
2022-08-03T11:30:02.929Z,101351.06
2022-08-03T11:32:40.215Z,101337.41
2022-08-03T11:35:16.716Z,101343.34
2022-08-03T11:38:01.931Z,101347.06
2022-08-03T11:40:47.082Z,101349.22
2022-08-03T11:43:26.756Z,101352.09
2022-08-03T11:46:28.650Z,101344.81
2022-08-03T11:49:10.931Z,101349.22
2022-08-03T11:51:40.049Z,101339.56
2022-08-03T11:54:08.008Z,101337.19
2022-08-03T11:56:50.075Z,101345.53
2022-08-03T11:59:22.321Z,101343.47
2022-08-03T12:01:51.005Z,101347.38
2022-08-03T12:04:18.266Z,101347.91
2022-08-03T12:07:01.497Z,101349.91
2022-08-03T12:09:28.678Z,101342.53
2022-08-03T12:11:59.692Z,101346.09
2022-08-03T12:14:49.994Z,101354.63
2022-08-03T12:17:17.869Z,101352.00
2022-08-03T12:19:45.404Z,101348.22
2022-08-03T12:22:13.505Z,101347.34
2022-08-03T12:24:47.202Z,101352.06
2022-08-03T12:27:25.370Z,101349.13
2022-08-03T12:29:58.837Z,101348.88
2022-08-03T12:32:31.184Z,101363.13
2022-08-03T12:35:01.343Z,101344.44
2022-08-03T12:37:29.523Z,101345.97
2022-08-03T12:40:07.883Z,101353.44
2022-08-03T12:42:39.863Z,101342.88
2022-08-03T12:45:26.841Z,101339.06
2022-08-03T12:48:00.342Z,101341.72
2022-08-03T12:50:36.463Z,101345.41
2022-08-03T12:53:09.481Z,101345.69
2022-08-03T12:55:57.172Z,101343.72
2022-08-03T12:58:35.867Z,101345.22
2022-08-03T13:01:10.085Z,101341.72
2022-08-03T13:03:49.746Z,101341.47
2022-08-03T13:06:25.636Z,101346.00
2022-08-03T13:09:07.852Z,101331.75
2022-08-03T13:11:57.311Z,101341.09
2022-08-03T13:14:24.019Z,101342.97
2022-08-03T13:16:52.229Z,101340.22
2022-08-03T13:19:19.402Z,101340.91
2022-08-03T13:22:02.168Z,101335.22
2022-08-03T13:24:33.185Z,101330.63
2022-08-03T13:28:00.987Z,101329.03
2022-08-03T13:29:50.211Z,101328.50
2022-08-03T13:32:17.286Z,101325.28
2022-08-03T13:34:44.480Z,101324.75
2022-08-03T13:37:12.162Z,101326.47
2022-08-03T13:39:57.954Z,101324.69
2022-08-03T13:42:36.141Z,101324.81
2022-08-03T13:45:04.879Z,101323.31
2022-08-03T13:47:32.250Z,101316.09
2022-08-03T13:50:02.492Z,101317.28
2022-08-03T13:52:32.888Z,101318.09
2022-08-03T13:55:01.393Z,101321.78
2022-08-03T13:58:03.859Z,101322.03
2022-08-03T14:00:27.595Z,101320.59
2022-08-03T14:03:12.673Z,101320.91
2022-08-03T14:05:44.671Z,101321.63
2022-08-03T14:08:12.428Z,101324.13
2022-08-03T14:10:43.507Z,101336.09
2022-08-03T14:13:17.418Z,101319.25
2022-08-03T14:15:50.057Z,101332.06
2022-08-03T14:18:29.093Z,101311.19
2022-08-03T14:21:06.585Z,101308.75
2022-08-03T14:23:40.136Z,101307.34
2022-08-03T14:26:09.654Z,101304.09
2022-08-03T14:28:36.708Z,101301.59
2022-08-03T14:31:04.790Z,101302.34
2022-08-03T14:33:35.714Z,101295.19
2022-08-03T14:36:02.914Z,101294.72
2022-08-03T14:38:31.741Z,101298.31
2022-08-03T14:40:58.933Z,101291.72
2022-08-03T14:43:26.018Z,101288.72
2022-08-03T14:46:00.941Z,101282.94
2022-08-03T14:50:26.579Z,101278.19
2022-08-03T14:51:19.273Z,101277.63
2022-08-03T14:53:46.737Z,101273.34
2022-08-03T14:56:13.786Z,101268.66
2022-08-03T14:58:40.801Z,101264.88
2022-08-03T15:02:03.029Z,101267.41
2022-08-03T15:03:55.106Z,101267.31
2022-08-03T15:06:24.429Z,101265.84
2022-08-03T15:09:13.945Z,101262.81
2022-08-03T15:11:38.964Z,101256.00
2022-08-03T15:14:09.179Z,101253.06
2022-08-03T15:16:38.423Z,101249.34
2022-08-03T15:20:03.797Z,101255.47
2022-08-03T15:21:53.746Z,101255.47
2022-08-03T15:24:21.006Z,101250.38
2022-08-03T15:26:48.128Z,101253.97
2022-08-03T15:30:07.778Z,101253.19
2022-08-03T15:32:06.064Z,101248.59
2022-08-03T15:34:35.844Z,101245.03
2022-08-03T15:37:03.424Z,101249.50
2022-08-03T15:39:59.328Z,101247.78
2022-08-03T15:42:31.115Z,101250.72
2022-08-03T15:44:59.422Z,101242.66
2022-08-03T15:47:26.872Z,101246.44
2022-08-03T15:49:54.112Z,101237.84
2022-08-03T15:52:21.399Z,101243.38
2022-08-03T15:54:48.449Z,101244.19
2022-08-03T15:57:15.529Z,101231.97
2022-08-03T15:59:42.641Z,101229.28
2022-08-03T16:02:10.171Z,101235.06
2022-08-03T16:04:37.287Z,101227.56
2022-08-03T16:07:04.724Z,101236.50
2022-08-03T16:09:42.379Z,101225.44
2022-08-03T16:12:15.863Z,101223.81
2022-08-03T16:14:52.852Z,101222.41
2022-08-03T16:17:21.791Z,101224.94
2022-08-03T16:19:49.310Z,101217.34
2022-08-03T16:22:17.477Z,101222.19
2022-08-03T16:24:47.550Z,101215.84
2022-08-03T16:27:17.509Z,101216.50
2022-08-03T16:30:02.412Z,101211.84
2022-08-03T16:32:29.503Z,101218.34
2022-08-03T16:34:56.639Z,101215.16
2022-08-03T16:37:38.304Z,101211.53
2022-08-03T16:40:17.643Z,101214.06
2022-08-03T16:42:47.614Z,101210.03
2022-08-03T16:45:14.999Z,101216.53
2022-08-03T16:47:42.111Z,101215.91
2022-08-03T16:50:17.187Z,101205.91
2022-08-03T16:52:48.553Z,101208.88
2022-08-03T16:55:42.806Z,101212.03
2022-08-03T16:58:04.888Z,101211.59
2022-08-03T17:00:41.249Z,101206.72
2022-08-03T17:03:12.780Z,101204.41
2022-08-03T17:05:49.644Z,101201.88
2022-08-03T17:08:26.217Z,101201.03
2022-08-03T17:10:56.352Z,101205.31
2022-08-03T17:13:38.801Z,101201.06
2022-08-03T17:16:10.417Z,101198.69
2022-08-03T17:19:01.996Z,101200.41
2022-08-03T17:21:33.019Z,101197.06
2022-08-03T17:24:46.085Z,101199.84
2022-08-03T17:28:50.494Z,101206.91
2022-08-03T17:30:13.347Z,101200.22
2022-08-03T17:32:57.100Z,101194.31
2022-08-03T17:35:36.725Z,101197.88
2022-08-03T17:38:11.838Z,101200.78
2022-08-03T17:40:48.078Z,101200.50
2022-08-03T17:44:12.981Z,101194.72
2022-08-03T17:46:10.998Z,101200.53
2022-08-03T17:48:41.422Z,101193.31
2022-08-03T17:51:50.084Z,101195.53
2022-08-03T17:55:50.341Z,101198.59
2022-08-03T17:58:01.985Z,101203.84
2022-08-03T18:00:51.614Z,101203.72
2022-08-03T18:03:57.808Z,101197.31
2022-08-03T18:06:30.551Z,101196.72
2022-08-03T18:09:00.183Z,101195.00
2022-08-03T18:11:37.046Z,101199.63
2022-08-03T18:14:29.806Z,101193.03
2022-08-03T18:17:04.775Z,101197.28
2022-08-03T18:20:03.451Z,101196.44
2022-08-03T18:22:26.937Z,101195.38
2022-08-03T18:24:56.656Z,101192.91
2022-08-03T18:27:24.524Z,101195.84
2022-08-03T18:30:15.172Z,101191.63
2022-08-03T18:32:44.262Z,101196.97
2022-08-03T18:35:53.332Z,101189.81
2022-08-03T18:38:18.863Z,101189.63
2022-08-03T18:40:48.585Z,101196.59
2022-08-03T18:43:17.544Z,101194.06
2022-08-03T18:45:56.079Z,101183.34
2022-08-03T18:48:55.115Z,101192.72
2022-08-03T18:51:33.847Z,101191.66
2022-08-03T18:54:47.084Z,101191.81
2022-08-03T18:57:34.754Z,101189.31
2022-08-03T19:00:17.458Z,101186.59
2022-08-03T19:03:05.805Z,101192.38
2022-08-03T19:05:56.368Z,101189.28
2022-08-03T19:08:50.218Z,101196.13
2022-08-03T19:12:12.526Z,101192.31
2022-08-03T19:14:29.516Z,101199.03
2022-08-03T19:17:08.754Z,101200.59
2022-08-03T19:19:43.347Z,101195.78
2022-08-03T19:22:15.878Z,101206.31
2022-08-03T19:24:46.320Z,101205.91
2022-08-03T19:27:15.868Z,101208.31
2022-08-03T19:29:59.534Z,101209.38
2022-08-03T19:32:29.650Z,101201.66
2022-08-03T19:35:00.442Z,101205.59
2022-08-03T19:37:38.722Z,101203.28
2022-08-03T19:40:10.860Z,101210.34
2022-08-03T19:42:46.338Z,101215.13
2022-08-03T19:46:04.467Z,101220.91
2022-08-03T19:48:17.482Z,101225.25
2022-08-03T19:50:45.052Z,101225.59
2022-08-03T19:53:14.270Z,101221.31
2022-08-03T19:55:47.504Z,101220.34
2022-08-03T19:58:33.329Z,101217.69
2022-08-03T20:01:01.421Z,101217.69
2022-08-03T20:03:50.492Z,101224.13
2022-08-03T20:06:23.392Z,101219.44
2022-08-03T20:08:51.764Z,101217.56
2022-08-03T20:11:20.896Z,101220.97
2022-08-03T20:13:57.641Z,101218.13
2022-08-03T20:16:26.930Z,101224.53
2022-08-03T20:18:56.252Z,101226.53
2022-08-03T20:21:27.254Z,101221.28
2022-08-03T20:24:02.838Z,101217.13
2022-08-03T20:26:54.263Z,101217.28
2022-08-03T20:30:04.989Z,101213.69
2022-08-03T20:32:24.351Z,101211.16
2022-08-03T20:34:52.957Z,101210.00
2022-08-03T20:37:20.428Z,101204.41
2022-08-03T20:39:49.702Z,101215.63
2022-08-03T20:42:21.629Z,101218.59
2022-08-03T20:45:06.036Z,101219.47
2022-08-03T20:47:50.750Z,101220.59
2022-08-03T20:50:22.109Z,101215.63
2022-08-03T20:52:50.048Z,101221.28
2022-08-03T20:55:47.595Z,101223.09
2022-08-03T20:58:09.860Z,101213.72
2022-08-03T21:00:37.537Z,101222.63
2022-08-03T21:03:06.699Z,101219.03
2022-08-03T21:05:51.074Z,101212.63
2022-08-03T21:08:26.879Z,101215.28
2022-08-03T21:10:59.036Z,101218.75
2022-08-03T21:13:43.183Z,101207.06
2022-08-03T21:16:15.020Z,101218.25
2022-08-03T21:18:53.612Z,101211.94
2022-08-03T21:21:24.395Z,101214.03
2022-08-03T21:23:54.928Z,101205.63
2022-08-03T21:26:26.750Z,101205.88
2022-08-03T21:28:56.968Z,101210.97
2022-08-03T21:31:26.458Z,101198.88
2022-08-03T21:34:00.213Z,101201.34
2022-08-03T21:36:32.048Z,101206.38
2022-08-03T21:39:01.316Z,101197.81
2022-08-03T21:41:31.860Z,101188.59
2022-08-03T21:44:01.451Z,101194.50
2022-08-03T21:46:35.294Z,101193.38
2022-08-03T21:50:02.683Z,101187.75
2022-08-03T21:52:02.812Z,101187.59
2022-08-03T21:54:43.462Z,101190.84
2022-08-03T21:57:24.380Z,101190.47
2022-08-03T22:00:02.465Z,101190.38
2022-08-03T22:02:32.128Z,101195.44
2022-08-03T22:04:59.632Z,101187.63
2022-08-03T22:07:29.302Z,101186.16
2022-08-03T22:09:58.607Z,101187.03
2022-08-03T22:12:29.245Z,101182.22
2022-08-03T22:15:00.920Z,101178.81
2022-08-03T22:17:55.439Z,101175.97
2022-08-03T22:20:23.286Z,101179.88
2022-08-03T22:22:56.614Z,101176.06
2022-08-03T22:25:30.767Z,101176.78
2022-08-03T22:28:06.665Z,101178.38
2022-08-03T22:30:34.632Z,101178.22
2022-08-03T22:33:05.040Z,101174.53
2022-08-03T22:35:47.343Z,101176.25
2022-08-03T22:38:15.762Z,101171.13
2022-08-03T22:40:45.133Z,101175.06
2022-08-03T22:43:12.267Z,101176.19
2022-08-03T22:46:07.891Z,101168.75
2022-08-03T22:48:27.907Z,101178.22
2022-08-03T22:50:59.549Z,101173.34
2022-08-03T22:53:26.768Z,101175.69
2022-08-03T22:55:55.618Z,101177.50
2022-08-03T22:58:23.098Z,101178.03
2022-08-03T23:00:56.387Z,101170.78
2022-08-03T23:04:01.150Z,101177.91
2022-08-03T23:06:19.560Z,101162.59
2022-08-03T23:08:47.663Z,101160.50
2022-08-03T23:11:18.561Z,101159.78
2022-08-03T23:13:54.046Z,101159.19
2022-08-03T23:16:29.391Z,101155.50
2022-08-03T23:19:00.139Z,101165.41
2022-08-03T23:21:53.858Z,101161.13
2022-08-03T23:24:33.858Z,101159.56
2022-08-03T23:27:09.315Z,101163.97
2022-08-03T23:29:39.036Z,101149.19
2022-08-03T23:32:07.135Z,101159.22
2022-08-03T23:34:56.787Z,101162.03
2022-08-03T23:37:25.339Z,101156.91
2022-08-03T23:39:54.600Z,101150.91
2022-08-03T23:42:22.519Z,101147.34
2022-08-03T23:44:57.001Z,101149.81
2022-08-03T23:47:47.491Z,101153.47
2022-08-03T23:50:16.383Z,101156.41
2022-08-03T23:53:16.973Z,101148.56
2022-08-03T23:56:03.140Z,101142.59
2022-08-03T23:58:55.466Z,101147.34
